TJNR/NRR METAR and TAF weather

Enter ICAO airport designator
Station Type Date Time Source
TJNR METAR 2021/04/18 01:53 UTC NOAA

TJNR 180153Z AUTO 16004KT 10SM SCT014 26/22 A3007 RMK AO2 SLP182 T02560222


Station Type Date Time Source
TJNR Decoded METAR 2021/04/18 01:53 UTC NOAA

ROOSEVELT ROADS PUERTO RICO, PR, United States (TJNR) 18-15N 65-38W 10M
Apr 17, 2021 - 09:53 PM EDT / 2021.04.18 0153 UTC
Wind: from the SSE (160 degrees) at 5 MPH (4 KT):0
Visibility: 10 mile(s):0
Sky conditions: partly cloudy
Temperature: 78.1 F (25.6 C)
Dew Point: 72.0 F (22.2 C)
Relative Humidity: 81%
Pressure (altimeter): 30.07 in. Hg (1018 hPa)
ob: TJNR 180153Z AUTO 16004KT 10SM SCT014 26/22 A3007 RMK AO2 SLP182 T02560222
cycle: 2

Station Type Date Time Source
TJNR TAF UTC NOAA

Error!

Example: see airport list